Time;durP1;ratioP1;P1;durP2;ratioP2;P2;SDS_P1;SDS_P2;PMS_P1;PMS_P2;Temp;Humidity;BMP_temperature;BMP_pressure;BME280_temperature;BME280_humidity;BME280_pressure;Samples;Min_cycle;Max_cycle;Signal;HPM_P1;HPM_P2
2023/10/07 00:01:11;;;;;;;5.50;3.10;;;;;;;10.99;nan;100441.63;4909806;29;20224;-79
2023/10/07 00:03:38;;;;;;;6.63;4.20;;;;;;;10.94;nan;100442.81;4912619;29;20240;-80
2023/10/07 00:06:09;;;;;;;6.07;4.10;;;;;;;10.93;nan;100427.94;4908996;29;20536;-78
2023/10/07 00:08:34;;;;;;;12.38;3.50;;;;;;;10.86;nan;100424.81;4908614;29;20292;-79
2023/10/07 00:11:00;;;;;;;12.60;3.97;;;;;;;10.78;nan;100433.06;4912907;29;20190;-82
2023/10/07 00:13:30;;;;;;;7.73;3.30;;;;;;;10.74;nan;100428.88;4909778;29;20226;-78
2023/10/07 00:15:56;;;;;;;3.17;2.85;;;;;;;10.76;nan;100424.41;4913256;29;20206;-80
2023/10/07 00:18:23;;;;;;;6.20;3.83;;;;;;;10.77;nan;100422.63;4912323;29;20529;-79
2023/10/07 00:20:54;;;;;;;5.93;4.18;;;;;;;10.78;nan;100419.94;4912722;29;21093;-82
2023/10/07 00:23:25;;;;;;;5.00;2.95;;;;;;;10.77;nan;100423.47;4911687;29;20213;-78
2023/10/07 00:25:54;;;;;;;6.15;2.88;;;;;;;10.70;nan;100426.50;4913579;29;20628;-77
2023/10/07 00:28:35;;;;;;;4.20;2.95;;;;;;;10.61;nan;100417.31;4914247;29;20288;-77
2023/10/07 00:31:03;;;;;;;5.07;3.53;;;;;;;10.53;nan;100414.22;4916451;29;20286;-78
2023/10/07 00:33:49;;;;;;;7.78;3.00;;;;;;;10.43;nan;100426.13;4914619;29;20213;-78
2023/10/07 00:36:16;;;;;;;3.92;3.03;;;;;;;10.37;nan;100422.03;4914482;29;20281;-78
2023/10/07 00:38:44;;;;;;;5.05;2.60;;;;;;;10.34;nan;100422.16;4915702;29;20688;-78
2023/10/07 00:41:11;;;;;;;6.63;3.33;;;;;;;10.34;nan;100417.78;4916882;29;20205;-78
2023/10/07 00:43:37;;;;;;;5.28;3.45;;;;;;;10.32;nan;100421.41;4911813;29;20202;-78
2023/10/07 00:46:20;;;;;;;3.43;3.13;;;;;;;10.28;nan;100423.31;4912073;29;20228;-78
2023/10/07 00:48:48;;;;;;;6.13;3.30;;;;;;;10.20;nan;100426.28;4911808;29;20450;-78
2023/10/07 00:51:24;;;;;;;5.07;2.72;;;;;;;10.13;nan;100426.69;4896072;29;20213;-78
2023/10/07 00:54:00;;;;;;;7.65;3.72;;;;;;;10.06;nan;100422.66;4910840;29;20233;-79
2023/10/07 00:56:33;;;;;;;12.00;3.80;;;;;;;10.03;nan;100412.31;4913653;29;20280;-78
2023/10/07 00:59:06;;;;;;;4.32;2.83;;;;;;;9.97;nan;100414.28;4907317;29;20201;-78
2023/10/07 01:01:36;;;;;;;3.53;2.70;;;;;;;9.89;nan;100415.59;4910555;29;20349;-79
2023/10/07 01:04:06;;;;;;;8.32;2.70;;;;;;;9.85;nan;100420.13;4911995;29;20194;-78
2023/10/07 01:06:38;;;;;;;5.10;3.40;;;;;;;9.85;nan;100424.50;4909716;29;20185;-79
2023/10/07 01:09:11;;;;;;;5.18;2.95;;;;;;;9.88;nan;100424.38;4914182;29;20542;-79
2023/10/07 01:11:46;;;;;;;6.15;5.70;;;;;;;9.92;nan;100424.16;4909606;29;20349;-78
2023/10/07 01:14:12;;;;;;;4.03;2.92;;;;;;;9.93;nan;100412.72;4914998;29;20292;-79
2023/10/07 01:16:43;;;;;;;6.20;2.75;;;;;;;9.91;nan;100414.59;4910678;29;20220;-79
2023/10/07 01:19:19;;;;;;;4.43;3.00;;;;;;;9.90;nan;100418.13;4913075;29;20229;-78
2023/10/07 01:21:55;;;;;;;4.40;2.83;;;;;;;9.89;nan;100413.81;4912385;29;20229;-79
2023/10/07 01:27:17;;;;;;;5.07;3.30;;;;;;;9.88;nan;100409.50;4915796;29;20193;-79
2023/10/07 01:29:43;;;;;;;3.55;2.47;;;;;;;9.81;nan;100407.25;4912085;29;20232;-80
2023/10/07 01:32:19;;;;;;;4.83;3.40;;;;;;;9.77;nan;100405.66;4911246;29;20566;-78
2023/10/07 01:34:48;;;;;;;6.13;3.80;;;;;;;9.75;nan;100403.13;4909621;29;20567;-79
2023/10/07 01:37:21;;;;;;;3.58;2.95;;;;;;;9.74;nan;100410.13;4909620;29;20194;-78
2023/10/07 01:39:52;;;;;;;3.55;2.88;;;;;;;9.72;nan;100414.63;4904665;29;20617;-78
2023/10/07 01:42:26;;;;;;;5.25;3.42;;;;;;;9.71;nan;100410.28;4909938;29;20218;-78
2023/10/07 01:44:57;;;;;;;3.85;3.10;;;;;;;9.68;nan;100407.81;4912548;29;20907;-79
2023/10/07 01:47:24;;;;;;;4.28;2.95;;;;;;;9.63;nan;100409.78;4903786;29;20197;-78
2023/10/07 01:49:53;;;;;;;4.95;3.28;;;;;;;9.58;nan;100401.28;4910651;29;20210;-79
2023/10/07 01:52:21;;;;;;;4.90;2.70;;;;;;;9.52;nan;100410.28;4909698;29;20210;-78
2023/10/07 01:54:48;;;;;;;4.90;3.17;;;;;;;9.49;nan;100405.19;4911197;29;20700;-80
2023/10/07 01:57:15;;;;;;;3.58;2.53;;;;;;;9.43;nan;100404.63;4895806;29;20198;-80
2023/10/07 01:59:40;;;;;;;4.60;3.38;;;;;;;9.35;nan;100389.25;4912600;29;20205;-79
2023/10/07 02:02:06;;;;;;;4.90;3.13;;;;;;;9.25;nan;100398.44;4912460;29;20715;-79
2023/10/07 02:04:36;;;;;;;4.23;2.80;;;;;;;9.18;nan;100383.91;4917945;29;20237;-80
2023/10/07 02:07:02;;;;;;;5.68;3.40;;;;;;;9.09;nan;100374.69;4916326;29;20238;-79
2023/10/07 02:09:29;;;;;;;4.32;2.40;;;;;;;9.06;nan;100394.03;4912796;29;20198;-78
2023/10/07 02:11:57;;;;;;;5.28;2.70;;;;;;;9.04;nan;100388.00;4911087;29;20179;-80
2023/10/07 02:14:27;;;;;;;3.85;2.60;;;;;;;9.05;nan;100392.34;4911318;29;20236;-78
2023/10/07 02:16:56;;;;;;;5.32;3.05;;;;;;;9.11;nan;100391.22;4911023;29;20204;-78
2023/10/07 02:19:34;;;;;;;2.65;2.03;;;;;;;9.20;nan;100390.78;4911150;29;20247;-79
2023/10/07 02:22:03;;;;;;;4.10;2.67;;;;;;;9.28;nan;100382.59;4908781;29;20202;-79
2023/10/07 02:24:33;;;;;;;2.67;2.25;;;;;;;9.34;nan;100382.28;4908177;29;20440;-79
2023/10/07 02:27:04;;;;;;;3.70;3.30;;;;;;;9.38;nan;100385.63;4910619;29;22005;-79
2023/10/07 02:29:30;;;;;;;3.88;2.90;;;;;;;9.41;nan;100375.00;4912811;29;20198;-79
2023/10/07 02:32:07;;;;;;;4.45;2.75;;;;;;;9.38;nan;100378.63;4911572;29;20213;-79
2023/10/07 02:34:34;;;;;;;7.07;3.00;;;;;;;9.39;nan;100389.94;4912008;29;20233;-78
2023/10/07 02:37:12;;;;;;;3.42;2.42;;;;;;;9.38;nan;100386.50;4913032;29;20344;-80
2023/10/07 02:39:47;;;;;;;3.03;2.40;;;;;;;9.39;nan;100384.72;4913330;29;20202;-78
2023/10/07 02:42:21;;;;;;;7.53;2.85;;;;;;;9.37;nan;100382.19;4910521;29;20241;-78
2023/10/07 02:45:00;;;;;;;4.47;2.70;;;;;;;9.39;nan;100389.94;4911661;29;20218;-79
2023/10/07 02:47:32;;;;;;;4.00;2.60;;;;;;;9.41;nan;100399.44;4910329;29;20207;-77
2023/10/07 02:50:00;;;;;;;3.60;2.67;;;;;;;9.36;nan;100400.59;4911933;29;20776;-79
2023/10/07 02:52:36;;;;;;;5.60;3.10;;;;;;;9.32;nan;100399.88;4911331;29;20283;-79
2023/10/07 02:55:26;;;;;;;3.85;2.55;;;;;;;9.28;nan;100398.31;4913067;29;20588;-80
2023/10/07 02:57:57;;;;;;;4.28;2.80;;;;;;;9.24;nan;100402.84;4910062;29;20828;-80
2023/10/07 03:00:35;;;;;;;4.10;2.92;;;;;;;9.25;nan;100394.06;4910890;29;20256;-80
2023/10/07 03:05:45;;;;;;;6.65;3.65;;;;;;;9.21;nan;100400.38;4910096;29;20713;-79
2023/10/07 03:08:19;;;;;;;3.28;2.80;;;;;;;9.21;nan;100407.41;4910520;29;20244;-79
2023/10/07 03:11:03;;;;;;;7.60;5.43;;;;;;;9.23;nan;100413.41;4909697;29;20194;-79
2023/10/07 03:13:28;;;;;;;3.95;2.45;;;;;;;9.26;nan;100415.88;4914345;28;20317;-79
2023/10/07 03:18:38;;;;;;;3.42;2.35;;;;;;;9.26;nan;100431.59;4911695;29;20206;-79
2023/10/07 03:21:11;;;;;;;3.70;2.50;;;;;;;9.22;nan;100430.06;4908864;29;20474;-80
2023/10/07 03:23:47;;;;;;;5.28;2.80;;;;;;;9.16;nan;100423.31;4910395;29;20712;-80
2023/10/07 03:26:21;;;;;;;3.90;3.03;;;;;;;9.11;nan;100416.59;4911868;29;20727;-79
2023/10/07 03:28:55;;;;;;;3.25;2.42;;;;;;;9.08;nan;100420.19;4910395;29;20273;-80
2023/10/07 03:31:34;;;;;;;2.20;2.10;;;;;;;9.07;nan;100429.81;4912449;29;20676;-79
2023/10/07 03:34:00;;;;;;;2.85;2.35;;;;;;;9.05;nan;100429.03;4912390;29;20210;-80
2023/10/07 03:36:41;;;;;;;6.33;2.80;;;;;;;9.08;nan;100428.06;4908557;28;20240;-79
2023/10/07 03:41:47;;;;;;;3.40;2.50;;;;;;;9.06;nan;100435.97;4911687;29;20213;-78
2023/10/07 03:44:20;;;;;;;6.68;2.70;;;;;;;9.07;nan;100434.19;4911603;29;20213;-78
2023/10/07 03:46:49;;;;;;;5.22;2.72;;;;;;;9.08;nan;100434.13;4909746;29;20682;-79
2023/10/07 03:49:16;;;;;;;5.22;3.28;;;;;;;9.06;nan;100430.72;4911877;29;20576;-80
2023/10/07 03:51:42;;;;;;;9.70;3.65;;;;;;;9.06;nan;100430.72;4913332;29;20217;-80
2023/10/07 03:54:12;;;;;;;7.43;3.50;;;;;;;9.06;nan;100433.34;4912224;29;20817;-79
2023/10/07 03:56:38;;;;;;;7.00;3.50;;;;;;;9.06;nan;100442.97;4913017;29;20676;-79
2023/10/07 03:59:07;;;;;;;4.18;3.20;;;;;;;9.06;nan;100438.59;4912213;29;20237;-81
2023/10/07 04:01:33;;;;;;;10.13;4.00;;;;;;;9.00;nan;100445.88;4914189;29;20554;-80
2023/10/07 04:04:01;;;;;;;5.87;4.17;;;;;;;8.94;nan;100454.00;4909920;29;20246;-80
2023/10/07 04:06:30;;;;;;;6.13;3.53;;;;;;;8.83;nan;100457.94;4909103;29;20474;-79
2023/10/07 04:09:05;;;;;;;3.63;3.25;;;;;;;8.70;nan;100458.53;4912659;29;20225;-80
2023/10/07 04:11:33;;;;;;;6.20;2.90;;;;;;;8.57;nan;100460.81;4913070;29;20288;-80
2023/10/07 04:13:59;;;;;;;2.80;2.47;;;;;;;8.50;nan;100467.19;4913962;29;20278;-79
2023/10/07 04:16:24;;;;;;;5.10;2.72;;;;;;;8.47;nan;100467.34;4913946;29;20202;-80
2023/10/07 04:21:41;;;;;;;4.82;2.67;;;;;;;8.41;nan;100457.97;4913355;29;20253;-80
2023/10/07 04:24:11;;;;;;;2.63;2.30;;;;;;;8.43;nan;100466.63;4915005;29;20210;-79
2023/10/07 04:26:41;;;;;;;4.80;2.50;;;;;;;8.48;nan;100453.31;4914609;29;20712;-79
2023/10/07 04:29:14;;;;;;;4.63;3.35;;;;;;;8.46;nan;100466.50;4916174;29;20211;-79
2023/10/07 04:31:47;;;;;;;4.35;2.67;;;;;;;8.47;nan;100475.19;4921299;29;20434;-79
2023/10/07 04:34:18;;;;;;;4.10;3.00;;;;;;;8.49;nan;100473.38;4913230;29;20224;-79
2023/10/07 04:39:39;;;;;;;6.20;3.25;;;;;;;8.46;nan;100476.97;4914283;29;20241;-79
2023/10/07 04:42:20;;;;;;;4.07;3.13;;;;;;;8.52;nan;100475.84;4915682;29;20241;-79
2023/10/07 04:47:34;;;;;;;6.45;3.03;;;;;;;8.58;nan;100473.81;4912944;29;21367;-79
2023/10/07 04:52:26;;;;;;;4.60;2.70;;;;;;;8.54;nan;100474.03;4911183;29;20677;-79
2023/10/07 04:54:52;;;;;;;4.30;2.80;;;;;;;8.57;nan;100481.75;4913368;29;20772;-79
2023/10/07 04:57:39;;;;;;;4.37;2.87;;;;;;;8.60;nan;100474.63;4910951;29;20276;-78
2023/10/07 05:00:08;;;;;;;4.10;2.53;;;;;;;8.63;nan;100473.63;4915166;29;20476;-79
2023/10/07 05:02:34;;;;;;;4.70;3.05;;;;;;;8.60;nan;100468.53;4913150;29;20212;-79
2023/10/07 05:05:00;;;;;;;5.72;3.42;;;;;;;8.51;nan;100454.06;4914580;29;20198;-79
2023/10/07 05:07:26;;;;;;;5.27;2.63;;;;;;;8.38;nan;100437.13;4915062;29;20193;-79
2023/10/07 05:09:56;;;;;;;5.35;2.50;;;;;;;8.25;nan;100428.06;4914969;29;20344;-79
2023/10/07 05:12:22;;;;;;;4.28;2.70;;;;;;;8.14;nan;100418.03;4904587;29;20309;-79
2023/10/07 05:14:48;;;;;;;5.00;2.90;;;;;;;8.08;nan;100428.75;4908860;29;20659;-78
2023/10/07 05:17:14;;;;;;;4.25;2.60;;;;;;;8.06;nan;100433.19;4911561;29;20202;-81
2023/10/07 05:19:40;;;;;;;3.03;2.43;;;;;;;8.10;nan;100450.47;4909600;29;20196;-79
2023/10/07 05:22:14;;;;;;;3.07;1.97;;;;;;;8.10;nan;100451.34;4909598;29;20589;-79
2023/10/07 05:24:41;;;;;;;6.82;2.20;;;;;;;8.07;nan;100448.81;4905503;29;20228;-78
2023/10/07 05:27:07;;;;;;;3.20;2.65;;;;;;;7.97;nan;100455.34;4911479;29;20197;-79
2023/10/07 05:29:32;;;;;;;5.40;2.65;;;;;;;7.83;nan;100452.41;4919030;29;20296;-80
2023/10/07 05:32:00;;;;;;;9.93;2.97;;;;;;;7.71;nan;100454.56;4904273;29;20682;-78
2023/10/07 05:34:29;;;;;;;4.60;2.65;;;;;;;7.65;nan;100448.75;4906903;29;20606;-79
2023/10/07 05:37:04;;;;;;;4.07;3.03;;;;;;;7.62;nan;100433.19;4908512;29;20318;-78
2023/10/07 05:39:32;;;;;;;3.10;2.72;;;;;;;7.63;nan;100435.72;4903304;29;20432;-79
2023/10/07 05:41:58;;;;;;;4.35;3.08;;;;;;;7.71;nan;100440.66;4907184;29;20280;-78
2023/10/07 05:44:24;;;;;;;3.10;2.30;;;;;;;7.75;nan;100457.94;4908798;29;20806;-78
2023/10/07 05:46:50;;;;;;;7.97;3.93;;;;;;;7.79;nan;100450.81;4906847;29;20201;-79
2023/10/07 05:49:16;;;;;;;4.55;2.92;;;;;;;7.81;nan;100451.63;4907217;29;20220;-79
2023/10/07 05:51:44;;;;;;;6.87;3.53;;;;;;;7.85;nan;100461.88;4907849;29;20697;-79
2023/10/07 05:54:09;;;;;;;4.28;3.88;;;;;;;7.88;nan;100461.75;4912216;29;20219;-78
2023/10/07 05:56:35;;;;;;;3.77;2.60;;;;;;;7.91;nan;100473.88;4912607;29;20313;-78
2023/10/07 05:59:01;;;;;;;2.97;2.63;;;;;;;7.92;nan;100470.38;4911493;29;20209;-78
2023/10/07 06:01:27;;;;;;;4.55;2.42;;;;;;;7.94;nan;100479.88;4910869;29;20238;-78
2023/10/07 06:03:56;;;;;;;5.23;3.57;;;;;;;7.95;nan;100480.72;4914556;29;20210;-78
2023/10/07 06:06:21;;;;;;;5.80;3.25;;;;;;;7.98;nan;100496.28;4912482;29;20632;-78
2023/10/07 06:08:47;;;;;;;7.37;3.40;;;;;;;8.04;nan;100500.41;4910811;29;20647;-77
2023/10/07 06:11:12;;;;;;;3.77;2.97;;;;;;;8.11;nan;100500.13;4911421;29;20194;-78
2023/10/07 06:13:40;;;;;;;3.13;2.77;;;;;;;8.14;nan;100502.63;4912547;29;20712;-78
2023/10/07 06:16:07;;;;;;;8.40;4.03;;;;;;;8.16;nan;100510.44;4914356;29;20210;-76
2023/10/07 06:18:33;;;;;;;4.38;3.40;;;;;;;8.24;nan;100510.97;4914582;29;20190;-79
2023/10/07 06:21:17;;;;;;;7.65;3.70;;;;;;;8.28;nan;100511.69;4914065;29;20277;-80
2023/10/07 06:23:43;;;;;;;7.20;4.03;;;;;;;8.32;nan;100518.53;4914369;29;20241;-79
2023/10/07 06:26:09;;;;;;;4.57;3.10;;;;;;;8.37;nan;100513.94;4913109;29;20285;-80
2023/10/07 06:28:35;;;;;;;5.95;3.85;;;;;;;8.43;nan;100513.75;4913185;29;20461;-79
2023/10/07 06:31:13;;;;;;;5.40;4.90;;;;;;;8.51;nan;100505.59;4915301;28;20204;-79
2023/10/07 06:34:03;;;;;;;5.63;3.60;;;;;;;8.58;nan;100505.25;4911034;29;20846;-79
2023/10/07 06:36:30;;;;;;;5.15;3.80;;;;;;;8.67;nan;100505.78;4909867;29;20200;-78
2023/10/07 06:39:07;;;;;;;6.70;3.67;;;;;;;8.72;nan;100511.69;4908217;29;20202;-80
2023/10/07 06:41:34;;;;;;;6.28;3.63;;;;;;;8.80;nan;100497.38;4909698;29;20886;-79
2023/10/07 06:44:02;;;;;;;7.15;4.15;;;;;;;8.89;nan;100504.00;4906137;29;20217;-79
2023/10/07 06:46:29;;;;;;;7.28;4.80;;;;;;;8.99;nan;100525.38;4908944;29;20217;-79
2023/10/07 06:48:55;;;;;;;6.00;4.45;;;;;;;9.09;nan;100535.41;4907268;29;20210;-79
2023/10/07 06:51:20;;;;;;;6.07;5.03;;;;;;;9.22;nan;100524.41;4906900;29;20191;-79
2023/10/07 06:53:46;;;;;;;8.00;4.60;;;;;;;9.31;nan;100524.00;4908388;29;20760;-79
2023/10/07 06:56:20;;;;;;;5.47;3.57;;;;;;;9.39;nan;100528.91;4909676;29;20202;-79
2023/10/07 06:58:54;;;;;;;7.05;3.90;;;;;;;9.48;nan;100547.75;4910814;29;20207;-80
2023/10/07 07:01:36;;;;;;;5.00;3.17;;;;;;;9.61;nan;100552.41;4907859;29;20416;-79
2023/10/07 07:04:10;;;;;;;6.65;3.70;;;;;;;9.73;nan;100551.88;4907771;29;20213;-81
2023/10/07 07:06:44;;;;;;;6.25;3.70;;;;;;;9.89;nan;100558.16;4903721;29;20484;-81
2023/10/07 07:12:12;;;;;;;10.40;4.00;;;;;;;10.15;nan;100551.69;4905066;29;20222;-82
2023/10/07 07:14:50;;;;;;;5.53;3.60;;;;;;;10.28;nan;100554.59;4909533;29;20696;-80
2023/10/07 07:22:39;;;;;;;4.90;4.40;;;;;;;10.64;nan;100556.41;4909950;29;20304;-80
2023/10/07 07:25:10;;;;;;;6.93;4.95;;;;;;;10.73;nan;100561.22;4909372;29;21268;-80
2023/10/07 07:27:36;;;;;;;6.07;4.60;;;;;;;10.82;nan;100555.50;4905810;29;20256;-81
2023/10/07 07:30:03;;;;;;;7.87;4.23;;;;;;;10.94;nan;100561.94;4910781;29;20387;-82
2023/10/07 07:32:35;;;;;;;9.30;5.00;;;;;;;11.05;nan;100569.28;4905709;29;20601;-81
2023/10/07 07:35:04;;;;;;;7.03;4.88;;;;;;;11.16;nan;100559.06;4911619;29;20212;-80
2023/10/07 07:37:32;;;;;;;9.85;5.80;;;;;;;11.30;nan;100553.94;4911545;29;20456;-80
2023/10/07 07:40:08;;;;;;;7.70;4.90;;;;;;;11.45;nan;100546.19;4910379;29;20213;-81
2023/10/07 07:42:34;;;;;;;14.52;5.05;;;;;;;11.56;nan;100541.22;4914518;29;20213;-79
2023/10/07 07:45:01;;;;;;;9.27;5.77;;;;;;;11.71;nan;100545.66;4911256;29;20202;-78
2023/10/07 07:47:31;;;;;;;6.25;5.43;;;;;;;11.81;nan;100550.44;4908064;29;20316;-79
2023/10/07 07:49:57;;;;;;;9.10;6.13;;;;;;;11.92;nan;100558.66;4906510;29;21181;-78
2023/10/07 07:52:25;;;;;;;13.15;5.70;;;;;;;12.02;nan;100557.22;4907828;29;20201;-78
2023/10/07 07:54:53;;;;;;;7.47;4.97;;;;;;;12.13;nan;100544.31;4906261;29;20233;-78
2023/10/07 07:57:22;;;;;;;7.57;4.68;;;;;;;12.27;nan;100525.09;4907560;29;20703;-78
2023/10/07 07:59:47;;;;;;;5.10;4.38;;;;;;;12.60;nan;100519.69;4905264;29;20734;-78
2023/10/07 08:02:13;;;;;;;9.63;4.60;;;;;;;13.38;nan;100527.47;4907539;29;20213;-78
2023/10/07 08:04:46;;;;;;;8.40;5.07;;;;;;;14.31;nan;100539.28;4908676;29;20193;-78
2023/10/07 08:09:52;;;;;;;7.40;4.85;;;;;;;15.04;nan;100544.19;4908272;29;20836;-79
2023/10/07 08:12:36;;;;;;;6.30;4.30;;;;;;;15.53;nan;100531.16;4905435;29;20712;-78
2023/10/07 08:17:39;;;;;;;5.50;4.75;;;;;;;16.93;nan;100522.81;4907591;29;20671;-78
2023/10/07 08:20:12;;;;;;;6.25;4.82;;;;;;;17.20;nan;100533.16;4913426;29;20198;-78
2023/10/07 08:22:45;;;;;;;10.90;4.32;;;;;;;17.40;nan;100533.41;4909904;29;20958;-79
2023/10/07 08:25:17;;;;;;;14.73;5.07;;;;;;;17.93;nan;100533.72;4913060;29;20213;-79
2023/10/07 08:27:45;;;;;;;12.13;4.65;;;;;;;18.77;nan;100524.19;4912810;29;20420;-79
2023/10/07 08:30:14;;;;;;;10.20;7.18;;;;;;;19.72;nan;100523.25;4912171;29;20293;-78
2023/10/07 08:32:42;;;;;;;10.10;6.10;;;;;;;20.53;nan;100521.38;4911780;29;20213;-79
2023/10/07 08:35:16;;;;;;;13.00;8.05;;;;;;;20.82;nan;100512.53;4910680;29;20848;-78
2023/10/07 08:37:45;;;;;;;30.23;10.53;;;;;;;20.60;nan;100500.28;4913501;29;20202;-78
2023/10/07 08:40:27;;;;;;;15.13;8.90;;;;;;;20.36;nan;100500.69;4912531;29;20537;-79
2023/10/07 08:43:01;;;;;;;16.43;9.13;;;;;;;20.07;nan;100512.13;4914251;29;20470;-79
2023/10/07 08:45:30;;;;;;;8.60;7.20;;;;;;;20.37;nan;100507.69;4916682;29;20564;-79
2023/10/07 08:48:15;;;;;;;8.47;5.73;;;;;;;20.99;nan;100497.59;4915475;29;20501;-79
2023/10/07 08:50:58;;;;;;;9.23;6.07;;;;;;;21.34;nan;100491.59;4910791;29;20547;-78
2023/10/07 08:53:25;;;;;;;11.40;5.73;;;;;;;21.63;nan;100485.34;4914027;29;20511;-79
2023/10/07 08:55:54;;;;;;;10.70;6.40;;;;;;;21.42;nan;100481.06;4910964;29;20539;-79
2023/10/07 08:58:26;;;;;;;5.00;4.40;;;;;;;20.86;nan;100484.53;4909872;29;20507;-78
2023/10/07 09:00:52;;;;;;;8.33;4.63;;;;;;;20.28;nan;100489.84;4913584;29;21038;-78
2023/10/07 09:03:19;;;;;;;21.10;7.00;;;;;;;19.78;nan;100490.72;4915702;29;20533;-78
2023/10/07 09:05:47;;;;;;;10.57;6.30;;;;;;;19.37;nan;100479.16;4913485;29;20437;-78
2023/10/07 09:08:15;;;;;;;4.47;3.90;;;;;;;18.96;nan;100501.38;4914167;29;20735;-78
2023/10/07 09:10:45;;;;;;;4.93;3.83;;;;;;;18.54;nan;100496.78;4914401;29;21508;-78
2023/10/07 09:13:28;;;;;;;5.50;3.97;;;;;;;18.24;nan;100486.03;4912752;29;20477;-78
2023/10/07 09:15:55;;;;;;;7.30;3.93;;;;;;;18.05;nan;100481.38;4911657;29;20452;-76
2023/10/07 09:18:28;;;;;;;6.07;3.95;;;;;;;17.96;nan;100484.75;4911311;29;20536;-78
2023/10/07 09:20:56;;;;;;;5.97;4.30;;;;;;;17.84;nan;100476.78;4913626;29;21567;-78
2023/10/07 09:23:24;;;;;;;5.85;3.42;;;;;;;17.75;nan;100482.81;4915773;29;20508;-78
2023/10/07 09:25:51;;;;;;;10.10;4.73;;;;;;;17.72;nan;100484.91;4911146;29;20201;-78
2023/10/07 09:28:22;;;;;;;281.85;64.95;;;;;;;17.69;nan;100483.31;4907552;29;20467;-78
2023/10/07 09:30:48;;;;;;;15.30;7.33;;;;;;;17.78;nan;100479.91;4908215;29;20702;-77
2023/10/07 09:33:18;;;;;;;7.83;4.20;;;;;;;17.90;nan;100481.66;4906135;29;20467;-75
2023/10/07 09:36:33;;;;;;;6.07;3.92;;;;;;;17.90;nan;100471.00;4905732;29;20441;-75
2023/10/07 09:38:34;;;;;;;4.60;3.37;;;;;;;18.11;nan;100467.56;4901548;29;20213;-75
2023/10/07 09:43:51;;;;;;;4.80;3.97;;;;;;;18.57;nan;100463.75;4906093;29;20338;-75
2023/10/07 09:46:24;;;;;;;6.00;2.67;;;;;;;18.75;nan;100454.28;4906140;29;20984;-76
2023/10/07 09:48:53;;;;;;;4.10;3.27;;;;;;;18.98;nan;100456.78;4907201;29;20481;-77
2023/10/07 09:51:28;;;;;;;5.90;2.50;;;;;;;19.16;nan;100454.38;4909707;29;21007;-75
2023/10/07 09:54:15;;;;;;;7.60;3.73;;;;;;;19.29;nan;100462.16;4909774;29;20465;-75
2023/10/07 09:56:48;;;;;;;8.23;6.80;;;;;;;19.44;nan;100459.00;4907150;29;20815;-75
2023/10/07 10:01:03;;;;;;;12.93;5.57;;;;;;;19.64;nan;100467.91;4906763;29;20438;-75
2023/10/07 10:03:04;;;;;;;7.83;5.50;;;;;;;19.82;nan;100483.28;4874199;29;20483;-75
2023/10/07 10:05:56;;;;;;;6.10;3.57;;;;;;;19.96;nan;100503.41;4910193;29;20453;-75
2023/10/07 10:08:45;;;;;;;4.87;3.30;;;;;;;20.09;nan;100507.53;4896278;29;20556;-75
2023/10/07 10:11:30;;;;;;;7.50;3.47;;;;;;;20.10;nan;100501.19;4907192;29;21459;-76
2023/10/07 10:14:16;;;;;;;7.50;3.83;;;;;;;20.22;nan;100506.41;4907025;29;21024;-75
2023/10/07 10:16:45;;;;;;;5.83;3.00;;;;;;;20.36;nan;100514.03;4908778;29;20682;-76
2023/10/07 10:19:21;;;;;;;4.93;3.33;;;;;;;20.50;nan;100507.44;4906432;29;20524;-76
2023/10/07 10:21:47;;;;;;;6.67;2.40;;;;;;;20.55;nan;100506.06;4904915;29;21030;-76
2023/10/07 10:24:16;;;;;;;7.63;3.90;;;;;;;20.53;nan;100515.16;4903278;29;20561;-76
2023/10/07 10:26:43;;;;;;;3.87;2.70;;;;;;;20.62;nan;100516.16;4910366;29;20289;-75
2023/10/07 10:29:16;;;;;;;4.47;3.40;;;;;;;20.71;nan;100517.97;4910989;29;20504;-75
2023/10/07 10:31:58;;;;;;;3.83;3.40;;;;;;;20.72;nan;100517.03;4910991;29;20458;-76
2023/10/07 10:34:26;;;;;;;6.60;4.17;;;;;;;20.68;nan;100515.59;4911033;29;20857;-75
2023/10/07 10:36:55;;;;;;;5.80;3.70;;;;;;;20.67;nan;100516.59;4906986;29;20465;-76
2023/10/07 10:39:25;;;;;;;5.30;3.00;;;;;;;20.69;nan;100520.81;4912816;29;20454;-74
2023/10/07 10:41:54;;;;;;;7.07;3.00;;;;;;;20.80;nan;100525.16;4907478;29;20536;-75
2023/10/07 10:44:20;;;;;;;4.67;3.57;;;;;;;20.95;nan;100521.09;4910946;29;20474;-75
2023/10/07 10:46:51;;;;;;;5.80;3.50;;;;;;;21.12;nan;100527.53;4912610;29;20997;-75
2023/10/07 10:49:20;;;;;;;6.60;3.07;;;;;;;21.20;nan;100524.13;4910005;29;20576;-75
2023/10/07 10:51:50;;;;;;;4.10;3.17;;;;;;;21.27;nan;100522.56;4913428;29;20608;-76
2023/10/07 10:54:18;;;;;;;5.57;3.40;;;;;;;21.27;nan;100527.91;4909353;29;21503;-76
2023/10/07 10:56:55;;;;;;;4.63;3.47;;;;;;;21.23;nan;100517.66;4908889;29;20567;-76
2023/10/07 10:59:22;;;;;;;2.97;2.77;;;;;;;21.21;nan;100502.59;4912145;29;20593;-76
2023/10/07 11:01:51;;;;;;;4.50;3.30;;;;;;;21.18;nan;100499.38;4910890;29;20478;-75
2023/10/07 11:04:20;;;;;;;5.83;3.07;;;;;;;21.18;nan;100494.88;4908070;29;20464;-76
2023/10/07 11:06:50;;;;;;;9.83;3.50;;;;;;;21.13;nan;100494.47;4910069;29;20460;-76
2023/10/07 11:09:18;;;;;;;5.50;3.10;;;;;;;21.15;nan;100497.00;4909641;29;20460;-76
2023/10/07 11:11:48;;;;;;;6.60;3.37;;;;;;;21.19;nan;100490.38;4911485;29;21085;-76
2023/10/07 11:14:20;;;;;;;4.97;3.03;;;;;;;21.22;nan;100490.06;4905074;29;21012;-76
2023/10/07 11:16:46;;;;;;;4.57;2.80;;;;;;;21.30;nan;100484.84;4919143;29;20472;-76
2023/10/07 11:19:12;;;;;;;3.70;2.90;;;;;;;21.34;nan;100464.03;4915094;29;20871;-76
2023/10/07 11:21:41;;;;;;;4.17;3.30;;;;;;;21.38;nan;100466.28;4915885;29;21375;-76
2023/10/07 11:24:07;;;;;;;146.50;38.50;;;;;;;21.45;nan;100469.22;4916386;29;20207;-76
2023/10/07 11:26:33;;;;;;;25.63;8.90;;;;;;;21.53;nan;100465.81;4918217;29;20458;-76
2023/10/07 11:29:11;;;;;;;29.33;12.00;;;;;;;21.62;nan;100459.59;4923631;29;20275;-76
2023/10/07 11:31:37;;;;;;;5.10;2.70;;;;;;;21.66;nan;100450.28;4919964;29;20447;-76
2023/10/07 11:34:04;;;;;;;3.83;2.77;;;;;;;21.70;nan;100454.34;4913645;29;20532;-76
2023/10/07 11:36:30;;;;;;;3.43;3.13;;;;;;;21.71;nan;100445.34;4917600;29;20456;-75
2023/10/07 11:38:56;;;;;;;6.43;3.00;;;;;;;21.73;nan;100432.63;4914732;29;20495;-75
2023/10/07 11:41:21;;;;;;;5.10;3.10;;;;;;;21.81;nan;100432.72;4912966;29;20270;-76
2023/10/07 11:43:47;;;;;;;9.27;2.73;;;;;;;21.91;nan;100418.47;4914379;29;20247;-76
2023/10/07 11:46:13;;;;;;;5.77;2.53;;;;;;;22.00;nan;100426.41;4912756;29;20260;-76
2023/10/07 11:48:44;;;;;;;5.57;3.90;;;;;;;22.08;nan;100422.97;4914872;29;20683;-75
2023/10/07 11:51:11;;;;;;;4.13;3.10;;;;;;;22.07;nan;100416.78;4917104;29;20457;-76
2023/10/07 11:53:39;;;;;;;5.70;2.70;;;;;;;22.09;nan;100427.38;4919602;29;20506;-75
2023/10/07 11:56:05;;;;;;;7.00;3.43;;;;;;;22.13;nan;100419.84;4916495;29;20492;-76
2023/10/07 11:58:32;;;;;;;6.03;3.03;;;;;;;22.17;nan;100410.53;4920975;29;20460;-76
2023/10/07 12:00:57;;;;;;;4.33;2.87;;;;;;;22.22;nan;100403.75;4917886;29;20479;-77
2023/10/07 12:03:25;;;;;;;3.40;2.33;;;;;;;22.25;nan;100397.25;4918413;29;21142;-77
2023/10/07 12:05:50;;;;;;;6.90;2.73;;;;;;;22.25;nan;100392.75;4916416;29;20848;-78
2023/10/07 12:08:18;;;;;;;124.63;28.43;;;;;;;22.23;nan;100394.75;4918224;29;20439;-77
2023/10/07 12:10:44;;;;;;;81.03;17.03;;;;;;;22.29;nan;100396.78;4919145;29;20668;-77
2023/10/07 12:13:11;;;;;;;7.30;3.83;;;;;;;22.39;nan;100394.03;4918903;29;21018;-77
2023/10/07 12:15:41;;;;;;;4.93;3.23;;;;;;;22.49;nan;100404.63;4918374;29;20288;-77
2023/10/07 12:18:08;;;;;;;4.30;2.33;;;;;;;22.60;nan;100400.88;4915459;29;20456;-77
2023/10/07 12:20:33;;;;;;;5.67;2.77;;;;;;;22.66;nan;100394.91;4919060;29;20484;-77
2023/10/07 12:23:00;;;;;;;22.13;6.83;;;;;;;22.73;nan;100391.44;4916893;29;20446;-78
2023/10/07 12:25:25;;;;;;;82.47;20.33;;;;;;;22.83;nan;100403.91;4918654;29;20445;-77
2023/10/07 12:27:51;;;;;;;312.93;58.83;;;;;;;22.87;nan;100402.56;4917123;29;20193;-77
2023/10/07 12:30:21;;;;;;;17.17;4.93;;;;;;;22.89;nan;100400.56;4917918;29;20228;-77
2023/10/07 12:32:48;;;;;;;7.50;3.50;;;;;;;22.92;nan;100390.38;4920808;29;20817;-78
2023/10/07 12:35:15;;;;;;;34.23;10.13;;;;;;;23.00;nan;100386.94;4917086;29;20420;-78
2023/10/07 12:37:46;;;;;;;8.93;3.63;;;;;;;23.08;nan;100380.78;4914198;29;20485;-78